Ana Sayfa
METAR-TAF:

METAR-TAF

Havaalanları :

Wings Field

Philadelphia / Blue Bell, Pensilvanya, Amerika Birleşik Devletleri

Enlem: 40-08-15N, Boylam: 075-15-54W, yükseklik: 92 m

Güncel hava durumu gözlemi

Rapor saat 03:15 UTC de 11 dakika önce yapıldı.
Rüzgar kuzeybatıdan 7 kt ve 15 kt'a kadar ani rüzgarlar
Sıcaklık 5°C
Nem 60%
Basınç 1021 hPa
Görüş mesafesi: 16.1 km
7000 ft yükseklikte parçalı bulutlu

METAR: KLOM 070315Z AUTO 32007G15KT 10SM SCT070 05/M02 A3014 RMK AO2 T00511017

Saat: 22:26 (03:26 UTC)


TAF: eksik

4.000'den fazla havaalanı için hava durumu gözlemleri ve tahminleri (METAR ve TAF raporları).

Kullanılabilir istasyonlar harita üzerinde sarı ve kırmızı noktalarla gösterilir.

İstasyonun adını görmek için fareyi noktanın üzerinde gezdirin.

Sonrasında hava gözlem ve tahminlerini görmek için tıklayın.

Haritayı değiştirmek için: yaklaştırmak için siyah artı işaretli yeşil düğmeye ve uzaklaştırmak için de eksi işaretli düğmeye hızla tıklayın; bitişik haritalar için yeşil okları kullanın.


METAR-TAF: